createdAt,value
2022-12-24T00:02:05.908Z,18.00
2022-12-24T00:04:49.114Z,16.00
2022-12-24T00:07:33.644Z,17.33
2022-12-24T00:10:16.740Z,16.07
2022-12-24T00:12:59.800Z,16.10
2022-12-24T00:15:42.819Z,17.13
2022-12-24T00:18:25.902Z,17.40
2022-12-24T00:21:08.922Z,19.17
2022-12-24T00:23:53.588Z,18.30
2022-12-24T00:26:36.902Z,18.37
2022-12-24T00:29:19.957Z,17.67
2022-12-24T00:32:03.097Z,16.30
2022-12-24T00:34:46.097Z,16.63
2022-12-24T00:37:29.122Z,16.40
2022-12-24T00:40:14.267Z,15.70
2022-12-24T00:42:57.566Z,15.27
2022-12-24T00:45:40.617Z,15.17
2022-12-24T00:48:24.077Z,16.47
2022-12-24T00:51:07.208Z,16.13
2022-12-24T00:53:50.890Z,16.07
2022-12-24T00:56:35.827Z,16.13
2022-12-24T00:59:18.885Z,15.33
2022-12-24T01:02:01.990Z,19.40
2022-12-24T01:05:02.382Z,20.43
2022-12-24T01:07:45.958Z,21.63
2022-12-24T01:10:29.140Z,20.20
2022-12-24T01:13:13.545Z,19.73
2022-12-24T01:15:56.998Z,21.53
2022-12-24T01:18:40.176Z,21.37
2022-12-24T01:21:23.184Z,20.17
2022-12-24T01:24:06.663Z,19.57
2022-12-24T01:26:49.641Z,19.53
2022-12-24T01:29:34.251Z,17.83
2022-12-24T01:32:17.368Z,19.77
2022-12-24T01:35:01.077Z,20.07
2022-12-24T01:37:44.471Z,21.80
2022-12-24T01:41:00.318Z,18.33
2022-12-24T01:43:43.293Z,21.77
2022-12-24T01:46:31.319Z,21.80
2022-12-24T01:49:17.101Z,21.10
2022-12-24T01:52:04.493Z,20.83
2022-12-24T01:54:52.062Z,20.80
2022-12-24T01:57:39.400Z,20.20
2022-12-24T02:00:22.713Z,20.50
2022-12-24T02:03:07.691Z,18.73
2022-12-24T02:05:52.493Z,22.83
2022-12-24T02:08:41.082Z,21.43
2022-12-24T02:11:24.234Z,19.67
2022-12-24T02:14:07.545Z,20.67
2022-12-24T02:16:57.493Z,22.17
2022-12-24T02:20:27.715Z,22.83
2022-12-24T02:23:32.919Z,26.73
2022-12-24T02:26:28.364Z,24.57
2022-12-24T02:29:29.304Z,23.00
2022-12-24T02:32:19.438Z,24.73
2022-12-24T02:35:07.633Z,23.77
2022-12-24T02:37:55.325Z,23.30
2022-12-24T02:40:42.506Z,16.43
2022-12-24T02:43:30.665Z,19.97
2022-12-24T02:46:18.294Z,18.03
2022-12-24T02:49:03.296Z,14.90
2022-12-24T02:51:46.347Z,13.90
2022-12-24T02:54:30.078Z,13.70
2022-12-24T02:57:26.516Z,14.00
2022-12-24T03:00:14.486Z,13.00
2022-12-24T03:03:13.723Z,13.90
2022-12-24T03:06:08.797Z,12.93
2022-12-24T03:08:58.642Z,13.47
2022-12-24T03:11:47.571Z,14.73
2022-12-24T03:14:31.806Z,14.63
2022-12-24T03:17:15.525Z,15.77
2022-12-24T03:19:58.514Z,15.33
2022-12-24T03:22:43.124Z,14.73
2022-12-24T03:25:27.951Z,17.23
2022-12-24T03:28:14.986Z,17.07
2022-12-24T03:31:03.082Z,18.17
2022-12-24T03:33:46.571Z,16.73
2022-12-24T03:36:30.890Z,15.47
2022-12-24T03:39:15.333Z,16.80
2022-12-24T03:41:58.323Z,17.57
2022-12-24T03:44:41.384Z,18.33
2022-12-24T03:47:24.507Z,18.23
2022-12-24T03:50:08.967Z,18.67
2022-12-24T03:52:52.040Z,18.43
2022-12-24T03:55:36.454Z,17.97
2022-12-24T03:58:19.479Z,18.43
2022-12-24T04:01:02.592Z,21.57
2022-12-24T04:03:46.262Z,20.27
2022-12-24T04:06:29.497Z,21.10
2022-12-24T04:09:12.582Z,21.60
2022-12-24T04:11:57.056Z,19.90
2022-12-24T04:14:40.113Z,17.23
2022-12-24T04:17:23.198Z,17.77
2022-12-24T04:20:07.405Z,18.83
2022-12-24T04:22:50.509Z,16.37
2022-12-24T04:25:33.587Z,15.87
2022-12-24T04:28:18.686Z,16.07
2022-12-24T04:31:02.224Z,14.63
2022-12-24T04:33:46.263Z,14.47
2022-12-24T04:36:29.357Z,15.00
2022-12-24T04:39:12.462Z,15.47
2022-12-24T04:41:55.540Z,13.20
2022-12-24T04:44:39.951Z,14.43
2022-12-24T04:47:23.189Z,13.77
2022-12-24T04:50:06.791Z,12.77
2022-12-24T04:52:49.894Z,13.97
2022-12-24T04:55:32.927Z,14.43
2022-12-24T04:58:15.966Z,14.80
2022-12-24T05:01:05.335Z,14.30
2022-12-24T05:03:48.713Z,16.13
2022-12-24T05:06:33.231Z,13.87
2022-12-24T05:09:16.250Z,14.30
2022-12-24T05:11:59.357Z,16.87
2022-12-24T05:14:43.408Z,15.30
2022-12-24T05:17:27.933Z,15.50
2022-12-24T05:20:11.489Z,14.87
2022-12-24T05:23:26.276Z,15.83
2022-12-24T05:26:23.179Z,15.20
2022-12-24T05:29:07.725Z,14.93
2022-12-24T05:31:51.230Z,14.87
2022-12-24T05:34:37.818Z,14.67
2022-12-24T05:37:20.857Z,15.10
2022-12-24T05:40:03.953Z,15.20
2022-12-24T05:42:47.056Z,14.67
2022-12-24T05:45:30.135Z,15.13
2022-12-24T05:48:13.224Z,15.37
2022-12-24T05:50:57.659Z,14.53
2022-12-24T05:53:41.705Z,14.63
2022-12-24T05:56:25.910Z,17.70
2022-12-24T05:59:09.062Z,18.90
2022-12-24T06:01:52.451Z,30.07
2022-12-24T06:04:35.680Z,39.00
2022-12-24T06:07:20.179Z,40.00
2022-12-24T06:10:03.303Z,41.43
2022-12-24T06:12:46.440Z,43.80
2022-12-24T06:15:29.449Z,42.90
2022-12-24T06:18:12.504Z,44.90
2022-12-24T06:20:56.842Z,41.53
2022-12-24T06:23:43.378Z,40.70
2022-12-24T06:26:26.721Z,42.57
2022-12-24T06:29:10.317Z,42.63
2022-12-24T06:31:53.382Z,42.30
2022-12-24T06:34:37.067Z,42.80
2022-12-24T06:37:20.164Z,41.73
2022-12-24T06:40:05.063Z,42.50
2022-12-24T06:42:48.170Z,40.93
2022-12-24T06:45:32.497Z,38.77
2022-12-24T06:48:16.334Z,41.07
2022-12-24T06:50:59.849Z,39.40
2022-12-24T06:53:42.995Z,38.83
2022-12-24T06:56:27.602Z,41.87
2022-12-24T06:59:10.648Z,35.27
2022-12-24T07:01:53.838Z,35.57
2022-12-24T07:04:37.102Z,35.73
2022-12-24T07:07:20.213Z,36.37
2022-12-24T07:10:03.235Z,36.47
2022-12-24T07:12:48.897Z,35.77
2022-12-24T07:15:31.983Z,32.47
2022-12-24T07:18:15.074Z,29.77
2022-12-24T07:20:58.592Z,28.37
2022-12-24T07:23:41.687Z,28.40
2022-12-24T07:26:24.739Z,26.73
2022-12-24T07:29:09.190Z,26.73
2022-12-24T07:31:52.321Z,24.60
2022-12-24T07:34:35.436Z,29.27
2022-12-24T07:37:18.549Z,30.23
2022-12-24T07:40:01.637Z,33.30
2022-12-24T07:42:44.824Z,32.83
2022-12-24T07:45:29.421Z,36.23
2022-12-24T07:48:12.485Z,36.20
2022-12-24T07:50:55.626Z,35.27
2022-12-24T07:53:39.183Z,37.90
2022-12-24T07:56:22.401Z,36.40
2022-12-24T07:59:05.510Z,35.43
2022-12-24T08:01:50.162Z,37.70
2022-12-24T08:04:36.420Z,39.07
2022-12-24T08:07:19.530Z,39.33
2022-12-24T08:10:02.571Z,36.57
2022-12-24T08:12:46.038Z,35.73
2022-12-24T08:15:29.271Z,35.90
2022-12-24T08:18:14.167Z,34.27
2022-12-24T08:20:57.187Z,30.53
2022-12-24T08:23:40.338Z,28.40
2022-12-24T08:26:23.441Z,28.20
2022-12-24T08:29:07.512Z,28.07
2022-12-24T08:31:50.681Z,25.43
2022-12-24T08:34:35.152Z,25.20
2022-12-24T08:37:18.395Z,24.20
2022-12-24T08:40:01.626Z,24.83
2022-12-24T08:42:44.837Z,26.00
2022-12-24T08:45:28.011Z,26.07
2022-12-24T08:48:11.630Z,26.67
2022-12-24T08:50:56.068Z,29.10
2022-12-24T08:53:40.125Z,28.20
2022-12-24T08:56:23.194Z,26.57
2022-12-24T08:59:06.326Z,27.70
2022-12-24T09:01:49.473Z,27.67
2022-12-24T09:04:32.666Z,27.77
2022-12-24T09:07:17.393Z,28.40
2022-12-24T09:10:00.498Z,27.87
2022-12-24T09:12:43.853Z,26.97
2022-12-24T09:15:26.946Z,30.23
2022-12-24T09:18:10.751Z,31.00
2022-12-24T09:20:59.590Z,30.20
2022-12-24T09:23:45.868Z,30.97
2022-12-24T09:26:32.079Z,31.80
2022-12-24T09:29:15.159Z,32.73
2022-12-24T09:31:58.701Z,33.97
2022-12-24T09:34:42.088Z,33.67
2022-12-24T09:37:25.517Z,36.13
2022-12-24T09:40:23.362Z,35.10
2022-12-24T09:43:13.176Z,38.27
2022-12-24T09:46:09.220Z,41.47
2022-12-24T09:48:56.017Z,41.13
2022-12-24T09:51:43.658Z,41.53
2022-12-24T09:54:31.257Z,44.70
2022-12-24T09:57:21.861Z,56.17
2022-12-24T10:00:07.055Z,58.63
2022-12-24T10:02:50.311Z,54.03
2022-12-24T10:05:42.038Z,54.33
2022-12-24T10:08:32.692Z,54.77
2022-12-24T10:11:21.189Z,52.37
2022-12-24T10:14:15.754Z,50.40
2022-12-24T10:17:14.635Z,50.90
2022-12-24T10:20:13.498Z,47.53
2022-12-24T10:23:02.247Z,45.60
2022-12-24T10:25:53.372Z,44.90
2022-12-24T10:28:45.059Z,40.10
2022-12-24T10:31:33.235Z,41.83
2022-12-24T10:34:22.347Z,38.97
2022-12-24T10:37:06.060Z,40.17
2022-12-24T10:39:49.166Z,40.27
2022-12-24T10:42:42.165Z,42.67
2022-12-24T10:45:38.822Z,39.33
2022-12-24T10:48:28.678Z,38.27
2022-12-24T10:51:16.642Z,39.70
2022-12-24T10:54:04.028Z,38.57
2022-12-24T10:56:50.515Z,39.37
2022-12-24T10:59:44.278Z,38.83
2022-12-24T11:02:30.512Z,40.73
2022-12-24T11:05:30.960Z,40.33
2022-12-24T11:08:18.280Z,39.97
2022-12-24T11:11:03.867Z,39.33
2022-12-24T11:13:53.828Z,39.90
2022-12-24T11:16:38.101Z,39.50
2022-12-24T11:19:29.938Z,40.40
2022-12-24T11:22:22.650Z,43.00
2022-12-24T11:25:08.614Z,43.43
2022-12-24T11:27:52.693Z,43.17
2022-12-24T11:30:37.060Z,42.70
2022-12-24T11:33:23.186Z,41.37
2022-12-24T11:36:13.455Z,45.60
2022-12-24T11:38:59.685Z,35.27
2022-12-24T11:41:42.879Z,39.73
2022-12-24T11:44:29.565Z,35.67
2022-12-24T11:47:15.472Z,34.63
2022-12-24T11:50:23.331Z,34.30
2022-12-24T11:53:13.731Z,33.90
2022-12-24T11:56:00.794Z,35.13
2022-12-24T11:58:47.800Z,32.60
2022-12-24T12:01:38.037Z,33.40
2022-12-24T12:04:23.778Z,33.70
2022-12-24T12:07:15.601Z,36.33
2022-12-24T12:10:05.115Z,36.43
2022-12-24T12:12:59.123Z,34.77
2022-12-24T12:15:48.557Z,36.00
2022-12-24T12:18:37.699Z,35.53
2022-12-24T12:21:23.817Z,35.10
2022-12-24T12:24:18.003Z,38.30
2022-12-24T12:27:10.323Z,36.17
2022-12-24T12:30:00.953Z,35.20
2022-12-24T12:32:49.955Z,37.30
2022-12-24T12:35:36.358Z,41.10
2022-12-24T12:38:23.913Z,40.60
2022-12-24T12:41:23.292Z,40.43
2022-12-24T12:44:24.801Z,39.30
2022-12-24T12:47:24.097Z,38.20
2022-12-24T12:50:15.899Z,37.67
2022-12-24T12:53:14.024Z,35.00
2022-12-24T12:56:14.839Z,36.30
2022-12-24T12:59:04.782Z,35.77
2022-12-24T13:01:57.475Z,35.60
2022-12-24T13:05:29.059Z,33.03
2022-12-24T13:08:34.415Z,31.30
2022-12-24T13:11:33.848Z,32.20
2022-12-24T13:14:37.423Z,31.47
2022-12-24T13:17:46.027Z,28.73
2022-12-24T13:20:33.769Z,29.03
2022-12-24T13:23:20.923Z,29.83
2022-12-24T13:26:12.843Z,27.40
2022-12-24T13:28:56.179Z,27.53
2022-12-24T13:31:40.185Z,31.40
2022-12-24T13:34:38.111Z,30.60
2022-12-24T13:37:33.619Z,28.50
2022-12-24T13:40:24.104Z,31.10
2022-12-24T13:43:12.678Z,36.60
2022-12-24T13:45:55.871Z,36.33
2022-12-24T13:48:39.315Z,39.13
2022-12-24T13:51:27.449Z,41.30
2022-12-24T13:54:14.932Z,42.30
2022-12-24T13:56:59.610Z,55.27
2022-12-24T13:59:44.051Z,48.57
2022-12-24T14:02:28.902Z,46.83
2022-12-24T14:05:25.869Z,46.40
2022-12-24T14:08:13.131Z,43.63
2022-12-24T14:11:08.405Z,45.63
2022-12-24T14:14:28.988Z,47.47
2022-12-24T14:17:22.702Z,46.67
2022-12-24T14:20:11.694Z,46.17
2022-12-24T14:22:56.988Z,45.07
2022-12-24T14:25:43.729Z,46.87
2022-12-24T14:28:35.588Z,46.40
2022-12-24T14:31:20.400Z,45.20
2022-12-24T14:34:10.713Z,46.43
2022-12-24T14:36:56.165Z,46.60
2022-12-24T14:39:42.705Z,45.37
2022-12-24T14:42:39.533Z,49.20
2022-12-24T14:45:31.395Z,46.07
2022-12-24T14:48:20.743Z,47.60
2022-12-24T14:51:12.413Z,54.97
2022-12-24T14:54:21.754Z,52.27
2022-12-24T14:57:22.421Z,59.80
2022-12-24T15:00:20.708Z,99.10
2022-12-24T15:03:13.537Z,130.80
2022-12-24T15:06:00.588Z,128.70
2022-12-24T15:08:48.545Z,112.37
2022-12-24T15:11:32.409Z,115.30
2022-12-24T15:14:16.741Z,111.77
2022-12-24T15:17:04.476Z,111.17
2022-12-24T15:19:53.085Z,120.17
2022-12-24T15:22:36.113Z,116.23
2022-12-24T15:25:21.773Z,107.57
2022-12-24T15:28:05.164Z,107.60
2022-12-24T15:30:48.561Z,101.53
2022-12-24T15:33:37.410Z,97.67
2022-12-24T15:36:29.718Z,108.37
2022-12-24T15:39:17.991Z,99.87
2022-12-24T15:42:18.222Z,87.03
2022-12-24T15:45:03.838Z,73.37
2022-12-24T15:47:52.440Z,57.50
2022-12-24T15:50:37.527Z,54.63
2022-12-24T15:53:30.590Z,42.13
2022-12-24T15:56:15.479Z,49.43
2022-12-24T15:59:13.965Z,88.03
2022-12-24T16:01:57.600Z,79.57
2022-12-24T16:04:40.779Z,68.43
2022-12-24T16:07:47.882Z,87.43
2022-12-24T16:10:32.340Z,96.43
2022-12-24T16:13:19.148Z,88.57
2022-12-24T16:16:04.607Z,90.53
2022-12-24T16:18:53.853Z,92.23
2022-12-24T16:21:40.172Z,92.30
2022-12-24T16:24:26.291Z,91.00
2022-12-24T16:27:13.979Z,86.33
2022-12-24T16:29:57.114Z,90.67
2022-12-24T16:32:42.177Z,83.53
2022-12-24T16:35:28.501Z,87.20
2022-12-24T16:38:11.730Z,83.67
2022-12-24T16:40:54.807Z,83.00
2022-12-24T16:43:50.812Z,82.17
2022-12-24T16:46:34.260Z,74.23
2022-12-24T16:49:18.756Z,82.00
2022-12-24T16:52:02.157Z,77.73
2022-12-24T16:54:45.352Z,68.23
2022-12-24T16:57:28.778Z,62.90
2022-12-24T17:00:18.347Z,59.20
2022-12-24T17:03:01.700Z,60.17
2022-12-24T17:05:45.810Z,52.90
2022-12-24T17:08:28.935Z,50.47
2022-12-24T17:11:12.836Z,49.83
2022-12-24T17:13:56.084Z,49.33
2022-12-24T17:16:40.742Z,47.83
2022-12-24T17:19:24.377Z,48.10
2022-12-24T17:22:07.533Z,48.40
2022-12-24T17:24:50.895Z,46.23
2022-12-24T17:27:34.036Z,48.73
2022-12-24T17:30:17.644Z,48.43
2022-12-24T17:33:02.175Z,48.97
2022-12-24T17:35:48.409Z,47.53
2022-12-24T17:38:31.647Z,49.80
2022-12-24T17:41:16.992Z,50.27
2022-12-24T17:44:00.224Z,51.83
2022-12-24T17:46:43.666Z,53.53
2022-12-24T17:49:28.453Z,66.33
2022-12-24T17:52:12.655Z,69.90
2022-12-24T17:54:58.659Z,66.30
2022-12-24T17:57:41.725Z,73.60
2022-12-24T18:00:29.506Z,75.10
2022-12-24T18:03:17.135Z,73.23
2022-12-24T18:06:06.583Z,78.83
2022-12-24T18:08:50.124Z,82.10
2022-12-24T18:11:35.511Z,88.97
2022-12-24T18:14:20.308Z,93.43
2022-12-24T18:17:03.722Z,103.40
2022-12-24T18:19:46.824Z,102.87
2022-12-24T18:22:31.450Z,101.30
2022-12-24T18:25:14.724Z,144.93
2022-12-24T18:27:58.424Z,153.27
2022-12-24T18:30:41.603Z,161.00
2022-12-24T18:33:24.777Z,190.63
2022-12-24T18:36:09.068Z,183.27
2022-12-24T18:38:53.828Z,146.67
2022-12-24T18:41:37.096Z,131.63
2022-12-24T18:44:24.990Z,136.77
2022-12-24T18:47:09.095Z,140.90
2022-12-24T18:49:52.273Z,150.70
2022-12-24T18:52:35.388Z,141.13
2022-12-24T18:55:21.563Z,127.93
2022-12-24T18:58:05.256Z,117.00
2022-12-24T19:00:48.928Z,87.10
2022-12-24T19:03:32.106Z,72.97
2022-12-24T19:06:15.302Z,43.47
2022-12-24T19:09:00.296Z,32.50
2022-12-24T19:11:45.830Z,20.87
2022-12-24T19:14:28.912Z,18.33
2022-12-24T19:17:12.159Z,17.53
2022-12-24T19:19:55.314Z,16.33
2022-12-24T19:22:38.462Z,14.57
2022-12-24T19:25:21.512Z,14.63
2022-12-24T19:28:08.880Z,14.17
2022-12-24T19:30:52.036Z,16.67
2022-12-24T19:33:42.354Z,15.83
2022-12-24T19:36:27.959Z,14.17
2022-12-24T19:39:11.013Z,15.93
2022-12-24T19:41:54.097Z,15.00
2022-12-24T19:44:38.821Z,13.47
2022-12-24T19:47:21.936Z,19.63
2022-12-24T19:50:05.637Z,14.37
2022-12-24T19:52:49.235Z,14.27
2022-12-24T19:55:32.362Z,15.27
2022-12-24T19:58:15.578Z,13.37
2022-12-24T20:01:11.154Z,12.63
2022-12-24T20:03:58.080Z,13.50
2022-12-24T20:06:41.117Z,13.50
2022-12-24T20:09:24.327Z,12.80
2022-12-24T20:12:08.351Z,14.00
2022-12-24T20:14:51.541Z,14.77
2022-12-24T20:17:35.968Z,13.30
2022-12-24T20:20:19.727Z,15.37
2022-12-24T20:23:04.858Z,14.17
2022-12-24T20:25:48.130Z,14.80
2022-12-24T20:28:33.566Z,14.13
2022-12-24T20:31:19.548Z,12.83
2022-12-24T20:34:07.688Z,15.53
2022-12-24T20:36:50.903Z,13.00
2022-12-24T20:39:34.082Z,14.33
2022-12-24T20:42:17.185Z,13.13
2022-12-24T20:45:00.900Z,13.13
2022-12-24T20:47:44.152Z,13.87
2022-12-24T20:50:29.679Z,12.57
2022-12-24T20:53:13.882Z,13.10
2022-12-24T20:55:57.247Z,12.90
2022-12-24T20:58:40.447Z,14.23
2022-12-24T21:01:26.634Z,14.03
2022-12-24T21:04:11.754Z,12.87
2022-12-24T21:06:56.479Z,12.47
2022-12-24T21:09:39.863Z,12.97
2022-12-24T21:12:40.701Z,11.83
2022-12-24T21:15:26.815Z,13.23
2022-12-24T21:18:12.174Z,12.37
2022-12-24T21:20:55.994Z,13.30
2022-12-24T21:23:40.495Z,13.03
2022-12-24T21:26:23.868Z,13.60
2022-12-24T21:29:08.363Z,14.43
2022-12-24T21:31:51.502Z,14.10
2022-12-24T21:34:35.306Z,13.37
2022-12-24T21:37:18.500Z,14.33
2022-12-24T21:40:03.239Z,13.87
2022-12-24T21:42:46.417Z,13.47
2022-12-24T21:45:29.545Z,13.67
2022-12-24T21:48:26.574Z,15.37
2022-12-24T21:51:10.044Z,17.97
2022-12-24T21:54:10.289Z,11.63
2022-12-24T21:57:14.646Z,13.87
2022-12-24T22:00:20.151Z,13.00
2022-12-24T22:03:03.415Z,12.30
2022-12-24T22:05:46.635Z,12.40
2022-12-24T22:08:47.486Z,13.07
2022-12-24T22:11:54.352Z,11.60
2022-12-24T22:14:41.857Z,11.93
2022-12-24T22:17:26.353Z,11.87
2022-12-24T22:20:10.597Z,11.13
2022-12-24T22:22:53.698Z,12.10
2022-12-24T22:25:37.932Z,11.97
2022-12-24T22:28:20.915Z,10.73
2022-12-24T22:31:05.433Z,12.53
2022-12-24T22:33:48.794Z,11.60
2022-12-24T22:36:32.081Z,10.93
2022-12-24T22:39:15.413Z,12.20
2022-12-24T22:41:59.079Z,11.93
2022-12-24T22:44:42.117Z,11.33
2022-12-24T22:47:26.536Z,10.40
2022-12-24T22:50:10.393Z,11.57
2022-12-24T22:52:54.004Z,11.17
2022-12-24T22:55:37.285Z,10.90
2022-12-24T22:58:20.341Z,11.00
2022-12-24T23:01:03.738Z,11.97
2022-12-24T23:03:48.278Z,10.63
2022-12-24T23:06:31.533Z,11.37
2022-12-24T23:09:16.961Z,12.83
2022-12-24T23:12:00.149Z,11.23
2022-12-24T23:14:57.504Z,11.97
2022-12-24T23:17:40.480Z,12.33
2022-12-24T23:20:24.858Z,13.60
2022-12-24T23:23:08.043Z,10.60
2022-12-24T23:25:51.005Z,11.50
2022-12-24T23:28:34.355Z,12.50
2022-12-24T23:31:18.278Z,11.83
2022-12-24T23:34:01.296Z,13.20
2022-12-24T23:36:45.651Z,11.40
2022-12-24T23:39:28.615Z,12.70
2022-12-24T23:42:11.694Z,11.30
2022-12-24T23:44:54.722Z,11.40
2022-12-24T23:47:37.765Z,11.83
2022-12-24T23:50:21.137Z,12.23
2022-12-24T23:53:05.504Z,12.10
2022-12-24T23:55:48.520Z,11.20
2022-12-24T23:58:31.914Z,12.27
